sensor_id;sensor_type;location;lat;lon;timestamp;temperature;humidity
13697;DHT22;6920;50.080;8.226;2022-08-11T00:00:35;23.40;71.20
13697;DHT22;6920;50.080;8.226;2022-08-11T00:03:10;23.40;70.60
13697;DHT22;6920;50.080;8.226;2022-08-11T00:05:45;23.40;71.00
13697;DHT22;6920;50.080;8.226;2022-08-11T00:08:27;23.30;71.00
13697;DHT22;6920;50.080;8.226;2022-08-11T00:11:06;23.30;70.30
13697;DHT22;6920;50.080;8.226;2022-08-11T00:13:38;23.30;70.90
13697;DHT22;6920;50.080;8.226;2022-08-11T00:16:14;23.30;71.30
13697;DHT22;6920;50.080;8.226;2022-08-11T00:18:53;23.30;71.00
13697;DHT22;6920;50.080;8.226;2022-08-11T00:21:31;23.30;70.70
13697;DHT22;6920;50.080;8.226;2022-08-11T00:24:09;23.40;71.00
13697;DHT22;6920;50.080;8.226;2022-08-11T00:26:37;23.30;71.10
13697;DHT22;6920;50.080;8.226;2022-08-11T00:29:09;23.20;71.30
13697;DHT22;6920;50.080;8.226;2022-08-11T00:31:37;23.20;71.60
13697;DHT22;6920;50.080;8.226;2022-08-11T00:34:13;23.20;72.10
13697;DHT22;6920;50.080;8.226;2022-08-11T00:36:46;23.10;71.70
13697;DHT22;6920;50.080;8.226;2022-08-11T00:39:16;23.00;72.50
13697;DHT22;6920;50.080;8.226;2022-08-11T00:44:54;22.70;73.70
13697;DHT22;6920;50.080;8.226;2022-08-11T00:47:48;22.70;74.00
13697;DHT22;6920;50.080;8.226;2022-08-11T00:50:34;22.60;74.50
13697;DHT22;6920;50.080;8.226;2022-08-11T00:56:38;22.40;75.50
13697;DHT22;6920;50.080;8.226;2022-08-11T01:08:40;22.10;76.70
13697;DHT22;6920;50.080;8.226;2022-08-11T01:14:33;22.00;77.80
13697;DHT22;6920;50.080;8.226;2022-08-11T01:20:54;21.90;78.50
13697;DHT22;6920;50.080;8.226;2022-08-11T01:36:41;21.70;78.70
13697;DHT22;6920;50.080;8.226;2022-08-11T01:46:08;21.50;79.90
13697;DHT22;6920;50.080;8.226;2022-08-11T01:48:41;21.50;80.60
13697;DHT22;6920;50.080;8.226;2022-08-11T01:51:34;21.40;80.10
13697;DHT22;6920;50.080;8.226;2022-08-11T01:54:19;21.50;80.20
13697;DHT22;6920;50.080;8.226;2022-08-11T01:57:03;21.40;80.00
13697;DHT22;6920;50.080;8.226;2022-08-11T01:59:41;21.40;80.40
13697;DHT22;6920;50.080;8.226;2022-08-11T02:02:31;21.40;80.70
13697;DHT22;6920;50.080;8.226;2022-08-11T02:05:38;21.30;80.90
13697;DHT22;6920;50.080;8.226;2022-08-11T02:08:25;21.30;82.50
13697;DHT22;6920;50.080;8.226;2022-08-11T02:11:17;21.30;81.90
13697;DHT22;6920;50.080;8.226;2022-08-11T02:14:11;21.20;82.80
13697;DHT22;6920;50.080;8.226;2022-08-11T02:16:58;21.20;83.10
13697;DHT22;6920;50.080;8.226;2022-08-11T02:19:37;21.20;83.50
13697;DHT22;6920;50.080;8.226;2022-08-11T02:22:25;21.10;83.60
13697;DHT22;6920;50.080;8.226;2022-08-11T02:25:21;21.00;83.80
13697;DHT22;6920;50.080;8.226;2022-08-11T02:28:02;21.10;84.50
13697;DHT22;6920;50.080;8.226;2022-08-11T02:30:38;21.00;84.60
13697;DHT22;6920;50.080;8.226;2022-08-11T02:33:19;20.90;85.10
13697;DHT22;6920;50.080;8.226;2022-08-11T02:38:23;20.70;86.50
13697;DHT22;6920;50.080;8.226;2022-08-11T02:40:59;25.00;90.20
13697;DHT22;6920;50.080;8.226;2022-08-11T02:43:40;20.40;88.40
13697;DHT22;6920;50.080;8.226;2022-08-11T02:46:21;20.40;88.80
13697;DHT22;6920;50.080;8.226;2022-08-11T02:48:58;20.40;88.90
13697;DHT22;6920;50.080;8.226;2022-08-11T02:52:40;20.40;89.40
13697;DHT22;6920;50.080;8.226;2022-08-11T02:55:23;20.40;88.80
13697;DHT22;6920;50.080;8.226;2022-08-11T02:58:01;20.40;89.30
13697;DHT22;6920;50.080;8.226;2022-08-11T03:00:45;20.30;89.80
13697;DHT22;6920;50.080;8.226;2022-08-11T03:03:22;20.20;90.20
13697;DHT22;6920;50.080;8.226;2022-08-11T03:06:04;20.20;90.20
13697;DHT22;6920;50.080;8.226;2022-08-11T03:08:44;20.10;90.50
13697;DHT22;6920;50.080;8.226;2022-08-11T03:11:37;20.10;90.50
13697;DHT22;6920;50.080;8.226;2022-08-11T03:14:47;19.90;91.00
13697;DHT22;6920;50.080;8.226;2022-08-11T03:17:40;19.70;91.50
13697;DHT22;6920;50.080;8.226;2022-08-11T03:20:30;19.60;92.20
13697;DHT22;6920;50.080;8.226;2022-08-11T03:23:06;19.50;92.80
13697;DHT22;6920;50.080;8.226;2022-08-11T03:25:48;19.50;93.10
13697;DHT22;6920;50.080;8.226;2022-08-11T03:28:29;19.40;93.20
13697;DHT22;6920;50.080;8.226;2022-08-11T03:31:13;19.40;93.60
13697;DHT22;6920;50.080;8.226;2022-08-11T03:33:53;19.40;94.10
13697;DHT22;6920;50.080;8.226;2022-08-11T03:39:54;19.30;94.50
13697;DHT22;6920;50.080;8.226;2022-08-11T03:42:32;19.30;94.70
13697;DHT22;6920;50.080;8.226;2022-08-11T03:45:10;19.20;95.10
13697;DHT22;6920;50.080;8.226;2022-08-11T03:48:17;19.40;95.20
13697;DHT22;6920;50.080;8.226;2022-08-11T03:51:15;19.40;95.10
13697;DHT22;6920;50.080;8.226;2022-08-11T03:54:17;19.30;95.30
13697;DHT22;6920;50.080;8.226;2022-08-11T04:00:03;19.20;96.20
13697;DHT22;6920;50.080;8.226;2022-08-11T04:10:21;19.10;96.60
13697;DHT22;6920;50.080;8.226;2022-08-11T04:13:39;19.10;96.80
13697;DHT22;6920;50.080;8.226;2022-08-11T04:16:46;19.10;96.80
13697;DHT22;6920;50.080;8.226;2022-08-11T04:26:47;19.10;97.70
13697;DHT22;6920;50.080;8.226;2022-08-11T04:29:34;19.10;97.70
13697;DHT22;6920;50.080;8.226;2022-08-11T04:32:18;19.20;97.60
13697;DHT22;6920;50.080;8.226;2022-08-11T04:35:09;19.10;97.70
13697;DHT22;6920;50.080;8.226;2022-08-11T04:38:13;19.10;97.90
13697;DHT22;6920;50.080;8.226;2022-08-11T04:41:19;19.00;98.00
13697;DHT22;6920;50.080;8.226;2022-08-11T04:44:25;19.10;98.10
13697;DHT22;6920;50.080;8.226;2022-08-11T04:47:20;19.00;98.50
13697;DHT22;6920;50.080;8.226;2022-08-11T04:50:19;19.10;98.50
13697;DHT22;6920;50.080;8.226;2022-08-11T04:53:33;19.10;98.40
13697;DHT22;6920;50.080;8.226;2022-08-11T04:56:31;19.20;98.50
13697;DHT22;6920;50.080;8.226;2022-08-11T04:59:39;19.30;98.30
13697;DHT22;6920;50.080;8.226;2022-08-11T05:03:09;19.20;98.60
13697;DHT22;6920;50.080;8.226;2022-08-11T05:09:07;19.40;98.90
13697;DHT22;6920;50.080;8.226;2022-08-11T05:12:00;19.40;98.90
13697;DHT22;6920;50.080;8.226;2022-08-11T05:14:32;19.40;99.30
13697;DHT22;6920;50.080;8.226;2022-08-11T05:17:33;19.40;99.30
13697;DHT22;6920;50.080;8.226;2022-08-11T05:20:44;19.50;99.10
13697;DHT22;6920;50.080;8.226;2022-08-11T05:23:33;19.70;98.90
13697;DHT22;6920;50.080;8.226;2022-08-11T05:26:19;19.70;98.90
13697;DHT22;6920;50.080;8.226;2022-08-11T05:32:31;19.90;99.20
13697;DHT22;6920;50.080;8.226;2022-08-11T05:35:27;20.00;98.70
13697;DHT22;6920;50.080;8.226;2022-08-11T05:38:02;20.10;98.70
13697;DHT22;6920;50.080;8.226;2022-08-11T05:40:49;20.10;98.80
13697;DHT22;6920;50.080;8.226;2022-08-11T05:43:20;20.10;99.00
13697;DHT22;6920;50.080;8.226;2022-08-11T05:46:06;20.20;98.90
13697;DHT22;6920;50.080;8.226;2022-08-11T05:48:52;20.30;99.00
13697;DHT22;6920;50.080;8.226;2022-08-11T05:51:41;20.40;98.80
13697;DHT22;6920;50.080;8.226;2022-08-11T05:54:29;20.60;98.20
13697;DHT22;6920;50.080;8.226;2022-08-11T05:57:32;20.70;97.70
13697;DHT22;6920;50.080;8.226;2022-08-11T06:00:08;20.90;97.20
13697;DHT22;6920;50.080;8.226;2022-08-11T06:02:42;21.10;96.60
13697;DHT22;6920;50.080;8.226;2022-08-11T06:05:11;21.30;95.70
13697;DHT22;6920;50.080;8.226;2022-08-11T06:07:44;21.40;95.70
13697;DHT22;6920;50.080;8.226;2022-08-11T06:10:13;21.50;95.40
13697;DHT22;6920;50.080;8.226;2022-08-11T06:12:52;21.70;95.30
13697;DHT22;6920;50.080;8.226;2022-08-11T06:15:27;21.70;94.90
13697;DHT22;6920;50.080;8.226;2022-08-11T06:18:09;21.90;94.30
13697;DHT22;6920;50.080;8.226;2022-08-11T06:20:46;22.10;93.50
13697;DHT22;6920;50.080;8.226;2022-08-11T06:23:18;22.30;92.30
13697;DHT22;6920;50.080;8.226;2022-08-11T06:25:51;22.50;91.70
13697;DHT22;6920;50.080;8.226;2022-08-11T06:28:19;22.80;90.60
13697;DHT22;6920;50.080;8.226;2022-08-11T06:31:10;23.00;90.10
13697;DHT22;6920;50.080;8.226;2022-08-11T06:33:52;23.10;89.00
13697;DHT22;6920;50.080;8.226;2022-08-11T06:36:37;23.30;88.90
13697;DHT22;6920;50.080;8.226;2022-08-11T06:39:19;23.50;87.50
13697;DHT22;6920;50.080;8.226;2022-08-11T06:41:59;23.60;87.30
13697;DHT22;6920;50.080;8.226;2022-08-11T06:44:38;23.70;87.30
13697;DHT22;6920;50.080;8.226;2022-08-11T06:47:28;23.80;85.20
13697;DHT22;6920;50.080;8.226;2022-08-11T06:50:06;24.00;85.60
13697;DHT22;6920;50.080;8.226;2022-08-11T06:52:53;24.30;85.10
13697;DHT22;6920;50.080;8.226;2022-08-11T06:55:25;24.40;84.50
13697;DHT22;6920;50.080;8.226;2022-08-11T06:58:12;24.60;84.40
13697;DHT22;6920;50.080;8.226;2022-08-11T07:01:02;24.70;83.10
13697;DHT22;6920;50.080;8.226;2022-08-11T07:04:05;25.00;82.90
13697;DHT22;6920;50.080;8.226;2022-08-11T07:07:05;25.20;81.70
13697;DHT22;6920;50.080;8.226;2022-08-11T07:10:23;25.40;82.10
13697;DHT22;6920;50.080;8.226;2022-08-11T07:13:15;25.30;80.10
13697;DHT22;6920;50.080;8.226;2022-08-11T07:16:00;25.80;80.70
13697;DHT22;6920;50.080;8.226;2022-08-11T07:18:34;25.70;79.30
13697;DHT22;6920;50.080;8.226;2022-08-11T07:21:27;25.60;79.70
13697;DHT22;6920;50.080;8.226;2022-08-11T07:24:15;25.70;79.30
13697;DHT22;6920;50.080;8.226;2022-08-11T07:27:05;25.80;80.30
13697;DHT22;6920;50.080;8.226;2022-08-11T07:29:57;26.00;80.30
13697;DHT22;6920;50.080;8.226;2022-08-11T07:32:31;26.30;80.80
13697;DHT22;6920;50.080;8.226;2022-08-11T07:35:08;26.30;80.30
13697;DHT22;6920;50.080;8.226;2022-08-11T07:37:47;26.50;79.30
13697;DHT22;6920;50.080;8.226;2022-08-11T07:40:32;26.50;77.50
13697;DHT22;6920;50.080;8.226;2022-08-11T07:43:05;26.90;78.20
13697;DHT22;6920;50.080;8.226;2022-08-11T07:45:34;27.10;78.00
13697;DHT22;6920;50.080;8.226;2022-08-11T07:48:19;27.00;76.90
13697;DHT22;6920;50.080;8.226;2022-08-11T07:51:05;27.40;76.40
13697;DHT22;6920;50.080;8.226;2022-08-11T07:53:52;27.60;76.10
13697;DHT22;6920;50.080;8.226;2022-08-11T07:56:27;27.80;74.30
13697;DHT22;6920;50.080;8.226;2022-08-11T07:59:00;27.60;75.80
13697;DHT22;6920;50.080;8.226;2022-08-11T08:01:47;27.50;74.30
13697;DHT22;6920;50.080;8.226;2022-08-11T08:04:32;28.00;74.90
13697;DHT22;6920;50.080;8.226;2022-08-11T08:07:22;27.90;75.80
13697;DHT22;6920;50.080;8.226;2022-08-11T08:10:11;27.30;74.10
13697;DHT22;6920;50.080;8.226;2022-08-11T08:12:58;27.50;75.80
13697;DHT22;6920;50.080;8.226;2022-08-11T08:15:44;28.20;73.40
13697;DHT22;6920;50.080;8.226;2022-08-11T08:18:33;28.80;72.20
13697;DHT22;6920;50.080;8.226;2022-08-11T08:21:06;28.80;72.50
13697;DHT22;6920;50.080;8.226;2022-08-11T08:23:41;29.30;71.60
13697;DHT22;6920;50.080;8.226;2022-08-11T08:26:17;29.60;70.90
13697;DHT22;6920;50.080;8.226;2022-08-11T08:29:05;29.40;70.20
13697;DHT22;6920;50.080;8.226;2022-08-11T08:32:04;29.20;70.70
13697;DHT22;6920;50.080;8.226;2022-08-11T08:34:44;28.90;71.40
13697;DHT22;6920;50.080;8.226;2022-08-11T08:37:27;29.60;71.20
13697;DHT22;6920;50.080;8.226;2022-08-11T08:40:06;30.10;69.80
13697;DHT22;6920;50.080;8.226;2022-08-11T08:42:49;29.30;69.40
13697;DHT22;6920;50.080;8.226;2022-08-11T08:45:19;29.20;70.30
13697;DHT22;6920;50.080;8.226;2022-08-11T08:47:54;29.20;69.60
13697;DHT22;6920;50.080;8.226;2022-08-11T08:50:31;29.40;69.30
13697;DHT22;6920;50.080;8.226;2022-08-11T08:53:19;29.50;70.80
13697;DHT22;6920;50.080;8.226;2022-08-11T08:55:57;29.80;69.20
13697;DHT22;6920;50.080;8.226;2022-08-11T08:58:38;30.30;68.60
13697;DHT22;6920;50.080;8.226;2022-08-11T09:01:10;30.50;68.70
13697;DHT22;6920;50.080;8.226;2022-08-11T09:03:41;30.80;67.80
13697;DHT22;6920;50.080;8.226;2022-08-11T09:06:14;30.20;69.30
13697;DHT22;6920;50.080;8.226;2022-08-11T09:08:46;30.10;69.10
13697;DHT22;6920;50.080;8.226;2022-08-11T09:11:15;30.30;68.80
13697;DHT22;6920;50.080;8.226;2022-08-11T09:14:02;30.20;68.80
13697;DHT22;6920;50.080;8.226;2022-08-11T09:16:36;30.40;68.60
13697;DHT22;6920;50.080;8.226;2022-08-11T09:19:10;30.40;67.50
13697;DHT22;6920;50.080;8.226;2022-08-11T09:21:48;30.70;66.90
13697;DHT22;6920;50.080;8.226;2022-08-11T09:24:39;30.80;67.00
13697;DHT22;6920;50.080;8.226;2022-08-11T09:27:24;31.10;67.20
13697;DHT22;6920;50.080;8.226;2022-08-11T09:29:57;30.60;67.70
13697;DHT22;6920;50.080;8.226;2022-08-11T09:32:25;30.60;67.10
13697;DHT22;6920;50.080;8.226;2022-08-11T09:34:55;30.60;68.70
13697;DHT22;6920;50.080;8.226;2022-08-11T09:37:27;30.00;66.80
13697;DHT22;6920;50.080;8.226;2022-08-11T09:40:18;31.20;65.80
13697;DHT22;6920;50.080;8.226;2022-08-11T09:43:24;31.00;65.70
13697;DHT22;6920;50.080;8.226;2022-08-11T09:46:11;31.00;65.80
13697;DHT22;6920;50.080;8.226;2022-08-11T09:48:44;30.50;66.20
13697;DHT22;6920;50.080;8.226;2022-08-11T09:51:12;31.30;66.50
13697;DHT22;6920;50.080;8.226;2022-08-11T09:53:44;30.80;65.60
13697;DHT22;6920;50.080;8.226;2022-08-11T09:56:19;30.90;64.80
13697;DHT22;6920;50.080;8.226;2022-08-11T09:59:10;31.00;64.80
13697;DHT22;6920;50.080;8.226;2022-08-11T10:04:29;31.80;63.30
13697;DHT22;6920;50.080;8.226;2022-08-11T10:07:14;32.00;64.00
13697;DHT22;6920;50.080;8.226;2022-08-11T10:09:49;31.60;62.10
13697;DHT22;6920;50.080;8.226;2022-08-11T10:12:21;31.10;63.20
13697;DHT22;6920;50.080;8.226;2022-08-11T10:14:53;32.00;63.10
13697;DHT22;6920;50.080;8.226;2022-08-11T10:17:42;32.30;61.10
13697;DHT22;6920;50.080;8.226;2022-08-11T10:20:35;32.10;62.00
13697;DHT22;6920;50.080;8.226;2022-08-11T10:23:04;30.90;62.50
13697;DHT22;6920;50.080;8.226;2022-08-11T10:25:52;31.20;61.90
13697;DHT22;6920;50.080;8.226;2022-08-11T10:28:39;31.70;60.80
13697;DHT22;6920;50.080;8.226;2022-08-11T10:31:10;31.30;60.90
13697;DHT22;6920;50.080;8.226;2022-08-11T10:33:58;31.60;61.90
13697;DHT22;6920;50.080;8.226;2022-08-11T10:36:34;32.10;61.80
13697;DHT22;6920;50.080;8.226;2022-08-11T10:39:09;32.50;60.70
13697;DHT22;6920;50.080;8.226;2022-08-11T10:41:44;32.30;59.60
13697;DHT22;6920;50.080;8.226;2022-08-11T10:44:39;31.90;61.00
13697;DHT22;6920;50.080;8.226;2022-08-11T10:47:16;32.50;60.60
13697;DHT22;6920;50.080;8.226;2022-08-11T10:50:08;32.50;60.60
13697;DHT22;6920;50.080;8.226;2022-08-11T10:52:59;32.80;61.20
13697;DHT22;6920;50.080;8.226;2022-08-11T10:55:46;32.00;60.70
13697;DHT22;6920;50.080;8.226;2022-08-11T10:58:39;31.80;61.90
13697;DHT22;6920;50.080;8.226;2022-08-11T11:01:24;31.80;61.40
13697;DHT22;6920;50.080;8.226;2022-08-11T11:03:57;31.80;60.40
13697;DHT22;6920;50.080;8.226;2022-08-11T11:06:34;32.40;60.70
13697;DHT22;6920;50.080;8.226;2022-08-11T11:09:16;32.80;61.50
13697;DHT22;6920;50.080;8.226;2022-08-11T11:11:49;32.90;58.50
13697;DHT22;6920;50.080;8.226;2022-08-11T11:14:42;32.70;59.20
13697;DHT22;6920;50.080;8.226;2022-08-11T11:17:30;32.90;59.10
13697;DHT22;6920;50.080;8.226;2022-08-11T11:20:22;33.20;58.30
13697;DHT22;6920;50.080;8.226;2022-08-11T11:22:55;33.30;59.30
13697;DHT22;6920;50.080;8.226;2022-08-11T11:25:45;32.90;58.50
13697;DHT22;6920;50.080;8.226;2022-08-11T11:28:49;32.70;57.90
13697;DHT22;6920;50.080;8.226;2022-08-11T11:31:30;32.70;57.90
13697;DHT22;6920;50.080;8.226;2022-08-11T11:34:20;32.80;58.90
13697;DHT22;6920;50.080;8.226;2022-08-11T11:36:55;32.70;58.70
13697;DHT22;6920;50.080;8.226;2022-08-11T11:39:26;33.00;56.90
13697;DHT22;6920;50.080;8.226;2022-08-11T11:42:05;31.60;57.50
13697;DHT22;6920;50.080;8.226;2022-08-11T11:44:37;32.20;59.10
13697;DHT22;6920;50.080;8.226;2022-08-11T11:47:11;32.20;59.00
13697;DHT22;6920;50.080;8.226;2022-08-11T11:49:42;33.00;57.80
13697;DHT22;6920;50.080;8.226;2022-08-11T11:52:15;33.70;58.30
13697;DHT22;6920;50.080;8.226;2022-08-11T11:54:45;33.50;57.10
13697;DHT22;6920;50.080;8.226;2022-08-11T11:57:19;33.10;57.50
13697;DHT22;6920;50.080;8.226;2022-08-11T12:00:08;33.00;57.20
13697;DHT22;6920;50.080;8.226;2022-08-11T12:02:53;32.40;58.10
13697;DHT22;6920;50.080;8.226;2022-08-11T12:05:25;33.00;57.60
13697;DHT22;6920;50.080;8.226;2022-08-11T12:07:55;33.30;57.40
13697;DHT22;6920;50.080;8.226;2022-08-11T12:10:47;33.40;57.30
13697;DHT22;6920;50.080;8.226;2022-08-11T12:13:16;33.70;56.50
13697;DHT22;6920;50.080;8.226;2022-08-11T12:16:10;33.50;57.50
13697;DHT22;6920;50.080;8.226;2022-08-11T12:18:55;33.30;56.00
13697;DHT22;6920;50.080;8.226;2022-08-11T12:21:29;33.10;56.90
13697;DHT22;6920;50.080;8.226;2022-08-11T12:24:02;32.70;56.90
13697;DHT22;6920;50.080;8.226;2022-08-11T12:26:48;33.50;57.40
13697;DHT22;6920;50.080;8.226;2022-08-11T12:29:36;33.30;57.30
13697;DHT22;6920;50.080;8.226;2022-08-11T12:32:14;33.80;56.70
13697;DHT22;6920;50.080;8.226;2022-08-11T12:34:49;33.30;55.60
13697;DHT22;6920;50.080;8.226;2022-08-11T12:37:21;33.30;55.60
13697;DHT22;6920;50.080;8.226;2022-08-11T12:40:00;33.20;56.10
13697;DHT22;6920;50.080;8.226;2022-08-11T12:42:47;33.50;56.70
13697;DHT22;6920;50.080;8.226;2022-08-11T12:45:36;33.70;55.30
13697;DHT22;6920;50.080;8.226;2022-08-11T12:48:10;32.90;56.20
13697;DHT22;6920;50.080;8.226;2022-08-11T12:51:01;33.40;57.00
13697;DHT22;6920;50.080;8.226;2022-08-11T12:53:54;32.70;56.10
13697;DHT22;6920;50.080;8.226;2022-08-11T12:56:23;33.10;56.50
13697;DHT22;6920;50.080;8.226;2022-08-11T12:59:13;33.30;55.50
13697;DHT22;6920;50.080;8.226;2022-08-11T13:02:07;33.60;55.90
13697;DHT22;6920;50.080;8.226;2022-08-11T13:04:52;33.50;55.10
13697;DHT22;6920;50.080;8.226;2022-08-11T13:07:21;33.60;55.10
13697;DHT22;6920;50.080;8.226;2022-08-11T13:09:54;33.60;55.10
13697;DHT22;6920;50.080;8.226;2022-08-11T13:12:24;33.20;54.70
13697;DHT22;6920;50.080;8.226;2022-08-11T13:15:10;33.50;55.00
13697;DHT22;6920;50.080;8.226;2022-08-11T13:18:10;33.80;55.80
13697;DHT22;6920;50.080;8.226;2022-08-11T13:20:57;33.80;54.50
13697;DHT22;6920;50.080;8.226;2022-08-11T13:23:30;32.40;54.70
13697;DHT22;6920;50.080;8.226;2022-08-11T13:26:01;32.50;55.00
13697;DHT22;6920;50.080;8.226;2022-08-11T13:30:57;34.00;54.30
13697;DHT22;6920;50.080;8.226;2022-08-11T13:33:50;33.60;53.60
13697;DHT22;6920;50.080;8.226;2022-08-11T13:36:22;34.10;54.00
13697;DHT22;6920;50.080;8.226;2022-08-11T13:38:55;33.50;53.80
13697;DHT22;6920;50.080;8.226;2022-08-11T13:41:24;32.90;54.70
13697;DHT22;6920;50.080;8.226;2022-08-11T13:44:08;33.10;53.70
13697;DHT22;6920;50.080;8.226;2022-08-11T13:46:38;33.30;53.70
13697;DHT22;6920;50.080;8.226;2022-08-11T13:49:10;33.90;53.40
13697;DHT22;6920;50.080;8.226;2022-08-11T13:51:37;33.70;52.70
13697;DHT22;6920;50.080;8.226;2022-08-11T13:54:17;33.10;52.20
13697;DHT22;6920;50.080;8.226;2022-08-11T13:56:49;32.90;54.00
13697;DHT22;6920;50.080;8.226;2022-08-11T13:59:19;33.80;52.10
13697;DHT22;6920;50.080;8.226;2022-08-11T14:01:58;33.70;52.00
13697;DHT22;6920;50.080;8.226;2022-08-11T14:04:38;33.70;52.70
13697;DHT22;6920;50.080;8.226;2022-08-11T14:07:10;33.60;52.40
13697;DHT22;6920;50.080;8.226;2022-08-11T14:09:42;33.20;52.00
13697;DHT22;6920;50.080;8.226;2022-08-11T14:12:14;33.20;52.50
13697;DHT22;6920;50.080;8.226;2022-08-11T14:15:07;33.60;51.70
13697;DHT22;6920;50.080;8.226;2022-08-11T14:17:38;33.00;52.10
13697;DHT22;6920;50.080;8.226;2022-08-11T14:20:20;33.80;52.20
13697;DHT22;6920;50.080;8.226;2022-08-11T14:22:48;34.10;51.30
13697;DHT22;6920;50.080;8.226;2022-08-11T14:25:19;33.90;51.90
13697;DHT22;6920;50.080;8.226;2022-08-11T14:28:14;33.70;51.90
13697;DHT22;6920;50.080;8.226;2022-08-11T14:31:04;33.70;51.40
13697;DHT22;6920;50.080;8.226;2022-08-11T14:33:42;33.70;51.80
13697;DHT22;6920;50.080;8.226;2022-08-11T14:36:25;33.50;51.70
13697;DHT22;6920;50.080;8.226;2022-08-11T14:38:54;33.70;51.00
13697;DHT22;6920;50.080;8.226;2022-08-11T14:41:25;33.90;51.10
13697;DHT22;6920;50.080;8.226;2022-08-11T14:44:12;33.90;50.70
13697;DHT22;6920;50.080;8.226;2022-08-11T14:46:59;33.30;51.20
13697;DHT22;6920;50.080;8.226;2022-08-11T14:49:41;33.60;51.60
13697;DHT22;6920;50.080;8.226;2022-08-11T14:52:11;33.90;50.50
13697;DHT22;6920;50.080;8.226;2022-08-11T14:54:42;34.30;50.80
13697;DHT22;6920;50.080;8.226;2022-08-11T14:57:30;34.00;50.30
13697;DHT22;6920;50.080;8.226;2022-08-11T14:59:59;33.60;50.90
13697;DHT22;6920;50.080;8.226;2022-08-11T15:02:37;33.50;50.40
13697;DHT22;6920;50.080;8.226;2022-08-11T15:05:25;34.00;50.60
13697;DHT22;6920;50.080;8.226;2022-08-11T15:08:03;33.70;50.20
13697;DHT22;6920;50.080;8.226;2022-08-11T15:10:32;33.40;49.60
13697;DHT22;6920;50.080;8.226;2022-08-11T15:12:59;33.40;50.20
13697;DHT22;6920;50.080;8.226;2022-08-11T15:18:13;33.20;50.40
13697;DHT22;6920;50.080;8.226;2022-08-11T15:20:42;33.30;50.00
13697;DHT22;6920;50.080;8.226;2022-08-11T15:23:29;33.40;50.90
13697;DHT22;6920;50.080;8.226;2022-08-11T15:26:18;33.10;50.30
13697;DHT22;6920;50.080;8.226;2022-08-11T15:29:16;32.80;50.90
13697;DHT22;6920;50.080;8.226;2022-08-11T15:32:08;32.90;51.10
13697;DHT22;6920;50.080;8.226;2022-08-11T15:34:57;32.70;50.40
13697;DHT22;6920;50.080;8.226;2022-08-11T15:37:55;32.70;51.60
13697;DHT22;6920;50.080;8.226;2022-08-11T15:40:30;32.90;51.50
13697;DHT22;6920;50.080;8.226;2022-08-11T15:43:21;32.30;50.80
13697;DHT22;6920;50.080;8.226;2022-08-11T15:46:15;32.40;51.20
13697;DHT22;6920;50.080;8.226;2022-08-11T15:48:46;32.60;51.10
13697;DHT22;6920;50.080;8.226;2022-08-11T15:51:19;32.30;51.20
13697;DHT22;6920;50.080;8.226;2022-08-11T15:53:55;31.70;51.20
13697;DHT22;6920;50.080;8.226;2022-08-11T15:56:27;31.70;51.90
13697;DHT22;6920;50.080;8.226;2022-08-11T15:58:56;31.70;52.30
13697;DHT22;6920;50.080;8.226;2022-08-11T16:01:43;31.70;52.20
13697;DHT22;6920;50.080;8.226;2022-08-11T16:04:21;31.80;52.50
13697;DHT22;6920;50.080;8.226;2022-08-11T16:06:54;31.60;52.00
13697;DHT22;6920;50.080;8.226;2022-08-11T16:09:30;31.70;53.10
13697;DHT22;6920;50.080;8.226;2022-08-11T16:12:10;31.70;52.90
13697;DHT22;6920;50.080;8.226;2022-08-11T16:14:43;31.60;52.60
13697;DHT22;6920;50.080;8.226;2022-08-11T16:17:18;31.50;52.90
13697;DHT22;6920;50.080;8.226;2022-08-11T16:19:50;31.20;52.70
13697;DHT22;6920;50.080;8.226;2022-08-11T16:22:23;31.20;52.60
13697;DHT22;6920;50.080;8.226;2022-08-11T16:24:57;31.30;53.00
13697;DHT22;6920;50.080;8.226;2022-08-11T16:27:36;31.40;53.20
13697;DHT22;6920;50.080;8.226;2022-08-11T16:30:11;31.50;53.20
13697;DHT22;6920;50.080;8.226;2022-08-11T16:32:43;30.70;53.10
13697;DHT22;6920;50.080;8.226;2022-08-11T16:35:16;30.80;53.90
13697;DHT22;6920;50.080;8.226;2022-08-11T16:38:03;30.80;53.10
13697;DHT22;6920;50.080;8.226;2022-08-11T16:40:51;30.70;52.90
13697;DHT22;6920;50.080;8.226;2022-08-11T16:43:21;30.70;53.00
13697;DHT22;6920;50.080;8.226;2022-08-11T16:46:07;30.60;53.00
13697;DHT22;6920;50.080;8.226;2022-08-11T16:49:09;30.70;53.20
13697;DHT22;6920;50.080;8.226;2022-08-11T16:51:42;30.50;53.90
13697;DHT22;6920;50.080;8.226;2022-08-11T16:54:11;30.40;53.90
13697;DHT22;6920;50.080;8.226;2022-08-11T16:56:42;30.30;54.10
13697;DHT22;6920;50.080;8.226;2022-08-11T16:59:18;30.30;54.10
13697;DHT22;6920;50.080;8.226;2022-08-11T17:01:52;30.30;53.90
13697;DHT22;6920;50.080;8.226;2022-08-11T17:04:30;30.30;54.30
13697;DHT22;6920;50.080;8.226;2022-08-11T17:07:20;30.20;55.20
13697;DHT22;6920;50.080;8.226;2022-08-11T17:10:09;30.00;54.70
13697;DHT22;6920;50.080;8.226;2022-08-11T17:15:44;29.90;54.50
13697;DHT22;6920;50.080;8.226;2022-08-11T17:18:30;29.90;55.00
13697;DHT22;6920;50.080;8.226;2022-08-11T17:21:15;29.80;55.10
13697;DHT22;6920;50.080;8.226;2022-08-11T17:23:49;29.90;55.60
13697;DHT22;6920;50.080;8.226;2022-08-11T17:26:23;29.80;55.40
13697;DHT22;6920;50.080;8.226;2022-08-11T17:29:16;29.80;55.20
13697;DHT22;6920;50.080;8.226;2022-08-11T17:31:52;29.70;55.50
13697;DHT22;6920;50.080;8.226;2022-08-11T17:34:41;29.70;55.20
13697;DHT22;6920;50.080;8.226;2022-08-11T17:37:29;29.60;55.30
13697;DHT22;6920;50.080;8.226;2022-08-11T17:40:02;29.60;55.80
13697;DHT22;6920;50.080;8.226;2022-08-11T17:42:31;29.60;56.80
13697;DHT22;6920;50.080;8.226;2022-08-11T17:45:19;29.50;56.60
13697;DHT22;6920;50.080;8.226;2022-08-11T17:48:10;29.40;56.40
13697;DHT22;6920;50.080;8.226;2022-08-11T17:51:06;29.40;57.20
13697;DHT22;6920;50.080;8.226;2022-08-11T17:53:40;29.40;56.70
13697;DHT22;6920;50.080;8.226;2022-08-11T17:56:29;29.30;57.00
13697;DHT22;6920;50.080;8.226;2022-08-11T17:59:17;29.30;57.20
13697;DHT22;6920;50.080;8.226;2022-08-11T18:02:06;29.30;57.50
13697;DHT22;6920;50.080;8.226;2022-08-11T18:04:49;29.20;57.70
13697;DHT22;6920;50.080;8.226;2022-08-11T18:07:24;29.20;58.20
13697;DHT22;6920;50.080;8.226;2022-08-11T18:10:11;29.00;57.70
13697;DHT22;6920;50.080;8.226;2022-08-11T18:12:56;29.10;58.20
13697;DHT22;6920;50.080;8.226;2022-08-11T18:15:43;29.00;58.40
13697;DHT22;6920;50.080;8.226;2022-08-11T18:18:29;29.00;59.20
13697;DHT22;6920;50.080;8.226;2022-08-11T18:21:17;28.90;59.60
13697;DHT22;6920;50.080;8.226;2022-08-11T18:24:09;28.80;59.40
13697;DHT22;6920;50.080;8.226;2022-08-11T18:26:59;28.70;59.00
13697;DHT22;6920;50.080;8.226;2022-08-11T18:29:48;28.70;60.00
13697;DHT22;6920;50.080;8.226;2022-08-11T18:32:37;28.60;60.60
13697;DHT22;6920;50.080;8.226;2022-08-11T18:35:24;28.50;61.30
13697;DHT22;6920;50.080;8.226;2022-08-11T18:38:15;28.30;62.00
13697;DHT22;6920;50.080;8.226;2022-08-11T18:41:02;28.30;62.70
13697;DHT22;6920;50.080;8.226;2022-08-11T18:43:56;28.20;63.10